sensor_id;sensor_type;location;lat;lon;timestamp;P1;durP1;ratioP1;P2;durP2;ratioP2
35969;SDS011;22448;51.298;6.430;2022-09-09T00:01:25;5.88;;;1.83;;
35969;SDS011;22448;51.298;6.430;2022-09-09T00:06:56;6.53;;;1.50;;
35969;SDS011;22448;51.298;6.430;2022-09-09T00:09:26;9.32;;;1.58;;
35969;SDS011;22448;51.298;6.430;2022-09-09T00:12:00;2.08;;;1.10;;
35969;SDS011;22448;51.298;6.430;2022-09-09T00:14:45;7.18;;;1.60;;
35969;SDS011;22448;51.298;6.430;2022-09-09T00:17:36;6.80;;;1.60;;
35969;SDS011;22448;51.298;6.430;2022-09-09T00:23:12;4.03;;;1.30;;
35969;SDS011;22448;51.298;6.430;2022-09-09T00:25:49;7.88;;;1.77;;
35969;SDS011;22448;51.298;6.430;2022-09-09T00:28:19;2.50;;;1.42;;
35969;SDS011;22448;51.298;6.430;2022-09-09T00:30:49;2.22;;;1.20;;
35969;SDS011;22448;51.298;6.430;2022-09-09T00:33:17;4.82;;;1.58;;
35969;SDS011;22448;51.298;6.430;2022-09-09T00:35:49;5.63;;;1.27;;
35969;SDS011;22448;51.298;6.430;2022-09-09T00:38:22;3.17;;;1.15;;
35969;SDS011;22448;51.298;6.430;2022-09-09T00:40:55;4.45;;;1.60;;
35969;SDS011;22448;51.298;6.430;2022-09-09T00:43:30;3.70;;;1.40;;
35969;SDS011;22448;51.298;6.430;2022-09-09T00:51:25;4.28;;;1.52;;
35969;SDS011;22448;51.298;6.430;2022-09-09T00:54:11;7.28;;;1.70;;
35969;SDS011;22448;51.298;6.430;2022-09-09T00:57:07;2.65;;;1.65;;
35969;SDS011;22448;51.298;6.430;2022-09-09T00:59:59;8.45;;;1.92;;
35969;SDS011;22448;51.298;6.430;2022-09-09T01:05:20;6.78;;;2.33;;
35969;SDS011;22448;51.298;6.430;2022-09-09T01:08:05;6.15;;;3.13;;
35969;SDS011;22448;51.298;6.430;2022-09-09T01:10:43;8.55;;;4.07;;
35969;SDS011;22448;51.298;6.430;2022-09-09T01:13:21;7.60;;;4.82;;
35969;SDS011;22448;51.298;6.430;2022-09-09T01:15:53;10.00;;;6.90;;
35969;SDS011;22448;51.298;6.430;2022-09-09T01:18:29;10.93;;;8.05;;
35969;SDS011;22448;51.298;6.430;2022-09-09T01:21:08;12.65;;;7.22;;
35969;SDS011;22448;51.298;6.430;2022-09-09T01:26:28;12.27;;;7.25;;
35969;SDS011;22448;51.298;6.430;2022-09-09T01:29:06;9.30;;;7.50;;
35969;SDS011;22448;51.298;6.430;2022-09-09T01:34:23;11.07;;;7.32;;
35969;SDS011;22448;51.298;6.430;2022-09-09T01:37:03;14.05;;;7.28;;
35969;SDS011;22448;51.298;6.430;2022-09-09T01:39:34;22.08;;;7.80;;
35969;SDS011;22448;51.298;6.430;2022-09-09T01:42:07;8.35;;;6.57;;
35969;SDS011;22448;51.298;6.430;2022-09-09T01:44:37;11.40;;;7.30;;
35969;SDS011;22448;51.298;6.430;2022-09-09T01:47:05;11.18;;;6.78;;
35969;SDS011;22448;51.298;6.430;2022-09-09T01:49:35;12.40;;;7.32;;
35969;SDS011;22448;51.298;6.430;2022-09-09T01:52:09;12.73;;;7.68;;
35969;SDS011;22448;51.298;6.430;2022-09-09T01:54:37;11.07;;;6.95;;
35969;SDS011;22448;51.298;6.430;2022-09-09T02:00:01;11.07;;;5.60;;
35969;SDS011;22448;51.298;6.430;2022-09-09T02:05:36;12.80;;;7.22;;
35969;SDS011;22448;51.298;6.430;2022-09-09T02:08:15;9.48;;;6.85;;
35969;SDS011;22448;51.298;6.430;2022-09-09T02:13:37;12.43;;;6.07;;
35969;SDS011;22448;51.298;6.430;2022-09-09T02:16:10;12.43;;;5.88;;
35969;SDS011;22448;51.298;6.430;2022-09-09T02:19:01;10.23;;;4.95;;
35969;SDS011;22448;51.298;6.430;2022-09-09T02:21:45;11.60;;;4.82;;
35969;SDS011;22448;51.298;6.430;2022-09-09T02:24:13;8.20;;;4.05;;
35969;SDS011;22448;51.298;6.430;2022-09-09T02:26:49;8.43;;;4.25;;
35969;SDS011;22448;51.298;6.430;2022-09-09T02:29:23;11.80;;;3.83;;
35969;SDS011;22448;51.298;6.430;2022-09-09T02:32:01;15.32;;;4.13;;
35969;SDS011;22448;51.298;6.430;2022-09-09T02:34:36;9.00;;;3.40;;
35969;SDS011;22448;51.298;6.430;2022-09-09T02:37:06;11.85;;;3.70;;
35969;SDS011;22448;51.298;6.430;2022-09-09T02:39:36;11.38;;;3.22;;
35969;SDS011;22448;51.298;6.430;2022-09-09T02:42:06;5.47;;;2.45;;
35969;SDS011;22448;51.298;6.430;2022-09-09T02:44:34;6.93;;;3.40;;
35969;SDS011;22448;51.298;6.430;2022-09-09T02:50:17;15.23;;;3.55;;
35969;SDS011;22448;51.298;6.430;2022-09-09T02:55:23;8.15;;;3.03;;
35969;SDS011;22448;51.298;6.430;2022-09-09T02:57:59;11.88;;;2.72;;
35969;SDS011;22448;51.298;6.430;2022-09-09T03:00:28;9.82;;;2.63;;
35969;SDS011;22448;51.298;6.430;2022-09-09T03:02:59;13.43;;;2.78;;
35969;SDS011;22448;51.298;6.430;2022-09-09T03:05:26;9.80;;;2.60;;
35969;SDS011;22448;51.298;6.430;2022-09-09T03:07:54;9.93;;;2.45;;
35969;SDS011;22448;51.298;6.430;2022-09-09T03:10:22;11.05;;;2.63;;
35969;SDS011;22448;51.298;6.430;2022-09-09T03:12:49;7.93;;;2.78;;
35969;SDS011;22448;51.298;6.430;2022-09-09T03:15:17;8.80;;;2.78;;
35969;SDS011;22448;51.298;6.430;2022-09-09T03:17:44;15.38;;;3.17;;
35969;SDS011;22448;51.298;6.430;2022-09-09T03:20:11;12.30;;;2.53;;
35969;SDS011;22448;51.298;6.430;2022-09-09T03:22:39;14.48;;;2.53;;
35969;SDS011;22448;51.298;6.430;2022-09-09T03:25:07;9.20;;;2.40;;
35969;SDS011;22448;51.298;6.430;2022-09-09T03:27:35;10.10;;;2.60;;
35969;SDS011;22448;51.298;6.430;2022-09-09T03:30:03;9.80;;;2.22;;
35969;SDS011;22448;51.298;6.430;2022-09-09T03:32:30;9.32;;;2.95;;
35969;SDS011;22448;51.298;6.430;2022-09-09T03:34:57;9.02;;;2.70;;
35969;SDS011;22448;51.298;6.430;2022-09-09T03:37:25;9.60;;;2.50;;
35969;SDS011;22448;51.298;6.430;2022-09-09T03:39:52;10.70;;;2.78;;
35969;SDS011;22448;51.298;6.430;2022-09-09T03:42:21;10.13;;;2.60;;
35969;SDS011;22448;51.298;6.430;2022-09-09T03:44:52;8.45;;;2.55;;
35969;SDS011;22448;51.298;6.430;2022-09-09T03:47:22;10.70;;;2.60;;
35969;SDS011;22448;51.298;6.430;2022-09-09T03:49:53;12.52;;;2.75;;
35969;SDS011;22448;51.298;6.430;2022-09-09T03:52:20;5.47;;;2.78;;
35969;SDS011;22448;51.298;6.430;2022-09-09T03:54:50;14.02;;;3.08;;
35969;SDS011;22448;51.298;6.430;2022-09-09T03:57:19;10.80;;;2.83;;
35969;SDS011;22448;51.298;6.430;2022-09-09T03:59:48;9.57;;;2.40;;
35969;SDS011;22448;51.298;6.430;2022-09-09T04:02:15;14.95;;;2.95;;
35969;SDS011;22448;51.298;6.430;2022-09-09T04:04:43;8.18;;;2.30;;
35969;SDS011;22448;51.298;6.430;2022-09-09T04:07:10;9.93;;;2.92;;
35969;SDS011;22448;51.298;6.430;2022-09-09T04:09:39;10.93;;;2.58;;
35969;SDS011;22448;51.298;6.430;2022-09-09T04:12:06;9.93;;;3.00;;
35969;SDS011;22448;51.298;6.430;2022-09-09T04:14:33;10.38;;;2.75;;
35969;SDS011;22448;51.298;6.430;2022-09-09T04:17:03;9.88;;;2.53;;
35969;SDS011;22448;51.298;6.430;2022-09-09T04:19:32;15.25;;;3.10;;
35969;SDS011;22448;51.298;6.430;2022-09-09T04:22:00;8.77;;;3.03;;
35969;SDS011;22448;51.298;6.430;2022-09-09T04:24:27;10.20;;;2.72;;
35969;SDS011;22448;51.298;6.430;2022-09-09T04:26:56;15.48;;;4.45;;
35969;SDS011;22448;51.298;6.430;2022-09-09T04:29:24;12.38;;;4.50;;
35969;SDS011;22448;51.298;6.430;2022-09-09T04:31:51;18.10;;;4.85;;
35969;SDS011;22448;51.298;6.430;2022-09-09T04:34:18;15.20;;;4.70;;
35969;SDS011;22448;51.298;6.430;2022-09-09T04:36:45;15.93;;;5.13;;
35969;SDS011;22448;51.298;6.430;2022-09-09T04:39:12;13.38;;;5.97;;
35969;SDS011;22448;51.298;6.430;2022-09-09T04:41:39;11.63;;;5.63;;
35969;SDS011;22448;51.298;6.430;2022-09-09T04:44:08;17.23;;;6.13;;
35969;SDS011;22448;51.298;6.430;2022-09-09T04:46:36;21.27;;;6.43;;
35969;SDS011;22448;51.298;6.430;2022-09-09T04:49:03;14.57;;;5.20;;
35969;SDS011;22448;51.298;6.430;2022-09-09T04:51:32;23.10;;;6.10;;
35969;SDS011;22448;51.298;6.430;2022-09-09T04:53:59;15.98;;;5.82;;
35969;SDS011;22448;51.298;6.430;2022-09-09T04:56:26;16.95;;;6.00;;
35969;SDS011;22448;51.298;6.430;2022-09-09T04:58:57;18.02;;;5.70;;
35969;SDS011;22448;51.298;6.430;2022-09-09T05:01:38;17.42;;;7.70;;
35969;SDS011;22448;51.298;6.430;2022-09-09T05:04:05;22.27;;;7.97;;
35969;SDS011;22448;51.298;6.430;2022-09-09T05:06:33;21.48;;;7.88;;
35969;SDS011;22448;51.298;6.430;2022-09-09T05:09:00;18.48;;;7.75;;
35969;SDS011;22448;51.298;6.430;2022-09-09T05:11:29;16.80;;;7.43;;
35969;SDS011;22448;51.298;6.430;2022-09-09T05:14:20;19.23;;;7.43;;
35969;SDS011;22448;51.298;6.430;2022-09-09T05:16:47;20.23;;;7.30;;
35969;SDS011;22448;51.298;6.430;2022-09-09T05:19:16;17.48;;;6.93;;
35969;SDS011;22448;51.298;6.430;2022-09-09T05:21:50;15.48;;;6.68;;
35969;SDS011;22448;51.298;6.430;2022-09-09T05:24:22;16.73;;;6.03;;
35969;SDS011;22448;51.298;6.430;2022-09-09T05:26:52;21.73;;;5.70;;
35969;SDS011;22448;51.298;6.430;2022-09-09T05:29:19;22.38;;;5.65;;
35969;SDS011;22448;51.298;6.430;2022-09-09T05:31:46;20.30;;;5.35;;
35969;SDS011;22448;51.298;6.430;2022-09-09T05:34:17;19.27;;;6.15;;
35969;SDS011;22448;51.298;6.430;2022-09-09T05:36:44;16.73;;;5.00;;
35969;SDS011;22448;51.298;6.430;2022-09-09T05:39:12;16.67;;;5.18;;
35969;SDS011;22448;51.298;6.430;2022-09-09T05:41:39;16.02;;;4.60;;
35969;SDS011;22448;51.298;6.430;2022-09-09T05:44:07;19.73;;;4.50;;
35969;SDS011;22448;51.298;6.430;2022-09-09T05:46:37;22.33;;;4.40;;
35969;SDS011;22448;51.298;6.430;2022-09-09T05:49:04;17.00;;;4.30;;
35969;SDS011;22448;51.298;6.430;2022-09-09T05:51:33;22.92;;;4.57;;
35969;SDS011;22448;51.298;6.430;2022-09-09T05:54:05;13.80;;;3.47;;
35969;SDS011;22448;51.298;6.430;2022-09-09T05:56:36;19.20;;;3.53;;
35969;SDS011;22448;51.298;6.430;2022-09-09T05:59:06;23.13;;;3.58;;
35969;SDS011;22448;51.298;6.430;2022-09-09T06:01:34;16.55;;;3.90;;
35969;SDS011;22448;51.298;6.430;2022-09-09T06:04:04;11.55;;;3.03;;
35969;SDS011;22448;51.298;6.430;2022-09-09T06:06:33;9.85;;;2.78;;
35969;SDS011;22448;51.298;6.430;2022-09-09T06:09:06;12.98;;;2.75;;
35969;SDS011;22448;51.298;6.430;2022-09-09T06:11:38;11.02;;;2.97;;
35969;SDS011;22448;51.298;6.430;2022-09-09T06:14:06;20.02;;;3.08;;
35969;SDS011;22448;51.298;6.430;2022-09-09T06:16:34;12.15;;;2.80;;
35969;SDS011;22448;51.298;6.430;2022-09-09T06:19:02;17.23;;;2.88;;
35969;SDS011;22448;51.298;6.430;2022-09-09T06:21:31;9.68;;;2.00;;
35969;SDS011;22448;51.298;6.430;2022-09-09T06:24:01;12.23;;;2.25;;
35969;SDS011;22448;51.298;6.430;2022-09-09T06:26:30;6.65;;;2.03;;
35969;SDS011;22448;51.298;6.430;2022-09-09T06:29:00;14.55;;;2.60;;
35969;SDS011;22448;51.298;6.430;2022-09-09T06:31:31;8.95;;;1.85;;
35969;SDS011;22448;51.298;6.430;2022-09-09T06:34:13;9.07;;;2.33;;
35969;SDS011;22448;51.298;6.430;2022-09-09T06:36:44;13.45;;;2.17;;
35969;SDS011;22448;51.298;6.430;2022-09-09T06:39:12;8.55;;;2.10;;
35969;SDS011;22448;51.298;6.430;2022-09-09T06:41:41;15.15;;;2.47;;
35969;SDS011;22448;51.298;6.430;2022-09-09T06:44:32;8.07;;;1.98;;
35969;SDS011;22448;51.298;6.430;2022-09-09T06:47:03;8.15;;;1.65;;
35969;SDS011;22448;51.298;6.430;2022-09-09T06:49:31;10.52;;;2.30;;
35969;SDS011;22448;51.298;6.430;2022-09-09T06:52:00;8.75;;;2.00;;
35969;SDS011;22448;51.298;6.430;2022-09-09T06:54:28;14.98;;;2.85;;
35969;SDS011;22448;51.298;6.430;2022-09-09T06:56:55;13.77;;;2.13;;
35969;SDS011;22448;51.298;6.430;2022-09-09T06:59:23;7.25;;;1.90;;
35969;SDS011;22448;51.298;6.430;2022-09-09T07:01:53;16.40;;;2.67;;
35969;SDS011;22448;51.298;6.430;2022-09-09T07:04:22;10.30;;;2.45;;
35969;SDS011;22448;51.298;6.430;2022-09-09T07:06:49;14.57;;;2.47;;
35969;SDS011;22448;51.298;6.430;2022-09-09T07:11:51;8.52;;;1.88;;
35969;SDS011;22448;51.298;6.430;2022-09-09T07:14:28;14.82;;;2.28;;
35969;SDS011;22448;51.298;6.430;2022-09-09T07:16:59;11.40;;;2.53;;
35969;SDS011;22448;51.298;6.430;2022-09-09T07:22:02;11.10;;;1.90;;
35969;SDS011;22448;51.298;6.430;2022-09-09T07:24:31;10.38;;;2.30;;
35969;SDS011;22448;51.298;6.430;2022-09-09T07:26:58;8.45;;;2.08;;
35969;SDS011;22448;51.298;6.430;2022-09-09T07:29:26;17.75;;;3.38;;
35969;SDS011;22448;51.298;6.430;2022-09-09T07:31:53;10.63;;;2.33;;
35969;SDS011;22448;51.298;6.430;2022-09-09T07:34:25;13.18;;;2.38;;
35969;SDS011;22448;51.298;6.430;2022-09-09T07:36:52;12.93;;;2.63;;
35969;SDS011;22448;51.298;6.430;2022-09-09T07:39:19;14.05;;;2.38;;
35969;SDS011;22448;51.298;6.430;2022-09-09T07:41:50;14.13;;;2.53;;
35969;SDS011;22448;51.298;6.430;2022-09-09T07:44:21;15.32;;;2.55;;
35969;SDS011;22448;51.298;6.430;2022-09-09T07:47:01;9.32;;;2.15;;
35969;SDS011;22448;51.298;6.430;2022-09-09T07:49:37;21.55;;;2.65;;
35969;SDS011;22448;51.298;6.430;2022-09-09T07:52:06;13.02;;;2.40;;
35969;SDS011;22448;51.298;6.430;2022-09-09T07:54:40;13.20;;;2.08;;
35969;SDS011;22448;51.298;6.430;2022-09-09T07:57:08;10.55;;;2.67;;
35969;SDS011;22448;51.298;6.430;2022-09-09T07:59:36;11.07;;;2.65;;
35969;SDS011;22448;51.298;6.430;2022-09-09T08:02:04;10.10;;;2.70;;
35969;SDS011;22448;51.298;6.430;2022-09-09T08:04:33;13.13;;;2.13;;
35969;SDS011;22448;51.298;6.430;2022-09-09T08:07:02;13.68;;;2.63;;
35969;SDS011;22448;51.298;6.430;2022-09-09T08:09:33;8.07;;;2.00;;
35969;SDS011;22448;51.298;6.430;2022-09-09T08:12:09;12.85;;;2.63;;
35969;SDS011;22448;51.298;6.430;2022-09-09T08:14:37;9.65;;;2.25;;
35969;SDS011;22448;51.298;6.430;2022-09-09T08:17:05;12.38;;;2.40;;
35969;SDS011;22448;51.298;6.430;2022-09-09T08:19:32;10.10;;;2.30;;
35969;SDS011;22448;51.298;6.430;2022-09-09T08:22:06;11.40;;;2.17;;
35969;SDS011;22448;51.298;6.430;2022-09-09T08:24:36;7.93;;;1.90;;
35969;SDS011;22448;51.298;6.430;2022-09-09T08:27:03;11.27;;;2.58;;
35969;SDS011;22448;51.298;6.430;2022-09-09T08:29:30;9.90;;;2.20;;
35969;SDS011;22448;51.298;6.430;2022-09-09T08:31:57;12.70;;;3.17;;
35969;SDS011;22448;51.298;6.430;2022-09-09T08:34:26;13.73;;;2.30;;
35969;SDS011;22448;51.298;6.430;2022-09-09T08:36:56;15.07;;;2.38;;
35969;SDS011;22448;51.298;6.430;2022-09-09T08:39:30;12.98;;;2.75;;
35969;SDS011;22448;51.298;6.430;2022-09-09T08:52:40;9.48;;;2.20;;
35969;SDS011;22448;51.298;6.430;2022-09-09T08:57:42;9.30;;;1.90;;
35969;SDS011;22448;51.298;6.430;2022-09-09T09:00:10;10.50;;;1.60;;
35969;SDS011;22448;51.298;6.430;2022-09-09T09:05:37;10.13;;;2.00;;
35969;SDS011;22448;51.298;6.430;2022-09-09T09:08:26;15.82;;;2.40;;
35969;SDS011;22448;51.298;6.430;2022-09-09T09:11:04;7.78;;;1.73;;
35969;SDS011;22448;51.298;6.430;2022-09-09T09:13:34;9.32;;;1.60;;
35969;SDS011;22448;51.298;6.430;2022-09-09T09:16:19;9.45;;;1.70;;
35969;SDS011;22448;51.298;6.430;2022-09-09T09:18:53;9.70;;;1.58;;
35969;SDS011;22448;51.298;6.430;2022-09-09T09:21:34;12.35;;;2.10;;
35969;SDS011;22448;51.298;6.430;2022-09-09T09:25:02;9.40;;;1.85;;
35969;SDS011;22448;51.298;6.430;2022-09-09T09:27:21;7.18;;;1.48;;
35969;SDS011;22448;51.298;6.430;2022-09-09T09:30:19;10.35;;;1.58;;
35969;SDS011;22448;51.298;6.430;2022-09-09T09:33:18;8.57;;;1.77;;
35969;SDS011;22448;51.298;6.430;2022-09-09T09:36:33;9.32;;;1.77;;
35969;SDS011;22448;51.298;6.430;2022-09-09T09:41:55;14.52;;;1.70;;
35969;SDS011;22448;51.298;6.430;2022-09-09T09:46:53;8.50;;;1.80;;
35969;SDS011;22448;51.298;6.430;2022-09-09T09:49:33;7.53;;;1.92;;
35969;SDS011;22448;51.298;6.430;2022-09-09T09:52:01;6.97;;;1.40;;
35969;SDS011;22448;51.298;6.430;2022-09-09T09:54:31;7.70;;;1.92;;
35969;SDS011;22448;51.298;6.430;2022-09-09T09:57:23;3.30;;;1.60;;
35969;SDS011;22448;51.298;6.430;2022-09-09T10:00:00;8.57;;;1.92;;
35969;SDS011;22448;51.298;6.430;2022-09-09T10:02:40;7.13;;;1.45;;
35969;SDS011;22448;51.298;6.430;2022-09-09T10:05:18;8.32;;;1.95;;
35969;SDS011;22448;51.298;6.430;2022-09-09T10:08:04;8.65;;;1.45;;
35969;SDS011;22448;51.298;6.430;2022-09-09T10:13:31;11.38;;;1.65;;
35969;SDS011;22448;51.298;6.430;2022-09-09T10:19:13;8.02;;;2.00;;
35969;SDS011;22448;51.298;6.430;2022-09-09T10:21:57;6.72;;;1.70;;
35969;SDS011;22448;51.298;6.430;2022-09-09T10:24:44;11.75;;;1.83;;
35969;SDS011;22448;51.298;6.430;2022-09-09T10:27:38;12.02;;;2.08;;
35969;SDS011;22448;51.298;6.430;2022-09-09T10:30:46;8.75;;;1.60;;
35969;SDS011;22448;51.298;6.430;2022-09-09T10:36:16;16.23;;;2.47;;
35969;SDS011;22448;51.298;6.430;2022-09-09T10:38:57;21.10;;;2.70;;
35969;SDS011;22448;51.298;6.430;2022-09-09T10:41:43;8.63;;;1.70;;
35969;SDS011;22448;51.298;6.430;2022-09-09T10:53:02;6.63;;;1.10;;
35969;SDS011;22448;51.298;6.430;2022-09-09T10:55:20;7.03;;;1.80;;
35969;SDS011;22448;51.298;6.430;2022-09-09T10:57:55;7.35;;;1.65;;
35969;SDS011;22448;51.298;6.430;2022-09-09T11:00:37;8.90;;;1.83;;
35969;SDS011;22448;51.298;6.430;2022-09-09T11:03:09;9.85;;;2.10;;
35969;SDS011;22448;51.298;6.430;2022-09-09T11:08:31;10.00;;;1.95;;
35969;SDS011;22448;51.298;6.430;2022-09-09T11:13:35;12.23;;;1.70;;
35969;SDS011;22448;51.298;6.430;2022-09-09T11:21:54;9.82;;;1.70;;
35969;SDS011;22448;51.298;6.430;2022-09-09T11:24:37;6.38;;;1.73;;
35969;SDS011;22448;51.298;6.430;2022-09-09T11:27:13;6.85;;;1.67;;
35969;SDS011;22448;51.298;6.430;2022-09-09T11:30:02;7.38;;;1.15;;
35969;SDS011;22448;51.298;6.430;2022-09-09T11:38:42;5.28;;;1.08;;
35969;SDS011;22448;51.298;6.430;2022-09-09T11:41:13;6.70;;;1.25;;
35969;SDS011;22448;51.298;6.430;2022-09-09T11:43:48;5.60;;;1.02;;
35969;SDS011;22448;51.298;6.430;2022-09-09T11:46:20;7.97;;;1.45;;
35969;SDS011;22448;51.298;6.430;2022-09-09T11:48:59;7.10;;;1.15;;
35969;SDS011;22448;51.298;6.430;2022-09-09T11:51:49;5.28;;;1.08;;
35969;SDS011;22448;51.298;6.430;2022-09-09T11:54:47;5.18;;;1.50;;
35969;SDS011;22448;51.298;6.430;2022-09-09T12:00:02;3.85;;;0.90;;
35969;SDS011;22448;51.298;6.430;2022-09-09T12:02:37;3.92;;;1.00;;
35969;SDS011;22448;51.298;6.430;2022-09-09T12:05:16;8.98;;;1.48;;
35969;SDS011;22448;51.298;6.430;2022-09-09T12:07:51;8.38;;;1.70;;
35969;SDS011;22448;51.298;6.430;2022-09-09T12:12:55;8.43;;;1.23;;
35969;SDS011;22448;51.298;6.430;2022-09-09T12:15:58;7.93;;;1.63;;
35969;SDS011;22448;51.298;6.430;2022-09-09T12:18:36;5.50;;;1.10;;
35969;SDS011;22448;51.298;6.430;2022-09-09T12:24:10;9.07;;;1.35;;
35969;SDS011;22448;51.298;6.430;2022-09-09T12:32:11;6.18;;;1.40;;
35969;SDS011;22448;51.298;6.430;2022-09-09T12:40:03;6.20;;;1.80;;
35969;SDS011;22448;51.298;6.430;2022-09-09T12:42:51;7.95;;;1.45;;
35969;SDS011;22448;51.298;6.430;2022-09-09T12:45:22;8.07;;;1.30;;
35969;SDS011;22448;51.298;6.430;2022-09-09T12:48:04;7.55;;;1.50;;
35969;SDS011;22448;51.298;6.430;2022-09-09T12:53:06;5.80;;;1.45;;
35969;SDS011;22448;51.298;6.430;2022-09-09T12:55:37;6.53;;;1.60;;
35969;SDS011;22448;51.298;6.430;2022-09-09T12:58:05;7.57;;;1.88;;
35969;SDS011;22448;51.298;6.430;2022-09-09T13:00:33;6.10;;;1.63;;
35969;SDS011;22448;51.298;6.430;2022-09-09T13:03:02;6.05;;;1.25;;
35969;SDS011;22448;51.298;6.430;2022-09-09T13:05:42;7.00;;;1.33;;
35969;SDS011;22448;51.298;6.430;2022-09-09T13:08:10;7.35;;;1.50;;
35969;SDS011;22448;51.298;6.430;2022-09-09T13:10:43;6.63;;;1.60;;
35969;SDS011;22448;51.298;6.430;2022-09-09T13:13:22;4.97;;;1.10;;
35969;SDS011;22448;51.298;6.430;2022-09-09T13:15:54;7.03;;;1.48;;
35969;SDS011;22448;51.298;6.430;2022-09-09T13:18:24;11.20;;;1.55;;
35969;SDS011;22448;51.298;6.430;2022-09-09T13:20:55;4.40;;;1.52;;
35969;SDS011;22448;51.298;6.430;2022-09-09T13:23:26;7.43;;;1.25;;
35969;SDS011;22448;51.298;6.430;2022-09-09T13:25:59;6.35;;;1.23;;
35969;SDS011;22448;51.298;6.430;2022-09-09T13:28:32;3.50;;;1.15;;
35969;SDS011;22448;51.298;6.430;2022-09-09T13:31:00;5.72;;;1.60;;
35969;SDS011;22448;51.298;6.430;2022-09-09T13:33:32;9.13;;;1.50;;
35969;SDS011;22448;51.298;6.430;2022-09-09T13:36:03;5.20;;;1.37;;
35969;SDS011;22448;51.298;6.430;2022-09-09T13:38:38;6.22;;;1.50;;
35969;SDS011;22448;51.298;6.430;2022-09-09T13:41:24;5.90;;;1.55;;
35969;SDS011;22448;51.298;6.430;2022-09-09T13:43:56;5.75;;;1.48;;
35969;SDS011;22448;51.298;6.430;2022-09-09T13:46:25;8.88;;;1.83;;
35969;SDS011;22448;51.298;6.430;2022-09-09T13:49:19;8.38;;;1.48;;
35969;SDS011;22448;51.298;6.430;2022-09-09T13:51:49;9.82;;;1.73;;
35969;SDS011;22448;51.298;6.430;2022-09-09T13:54:19;6.97;;;1.50;;
35969;SDS011;22448;51.298;6.430;2022-09-09T13:56:46;3.38;;;1.52;;
35969;SDS011;22448;51.298;6.430;2022-09-09T13:59:15;4.70;;;1.30;;
35969;SDS011;22448;51.298;6.430;2022-09-09T14:01:48;4.32;;;1.30;;
35969;SDS011;22448;51.298;6.430;2022-09-09T14:04:19;19.10;;;2.38;;
35969;SDS011;22448;51.298;6.430;2022-09-09T14:06:47;11.82;;;2.08;;
35969;SDS011;22448;51.298;6.430;2022-09-09T14:09:16;9.23;;;1.58;;
35969;SDS011;22448;51.298;6.430;2022-09-09T14:11:44;5.07;;;1.10;;
35969;SDS011;22448;51.298;6.430;2022-09-09T14:14:12;5.18;;;1.10;;
35969;SDS011;22448;51.298;6.430;2022-09-09T14:16:38;4.68;;;0.80;;
35969;SDS011;22448;51.298;6.430;2022-09-09T14:19:07;6.13;;;0.77;;
35969;SDS011;22448;51.298;6.430;2022-09-09T14:21:35;4.93;;;1.00;;
35969;SDS011;22448;51.298;6.430;2022-09-09T14:24:02;5.25;;;0.70;;
35969;SDS011;22448;51.298;6.430;2022-09-09T14:26:29;4.78;;;0.88;;
35969;SDS011;22448;51.298;6.430;2022-09-09T14:28:56;3.35;;;1.10;;
35969;SDS011;22448;51.298;6.430;2022-09-09T14:31:24;3.95;;;1.08;;
35969;SDS011;22448;51.298;6.430;2022-09-09T14:33:51;4.70;;;0.80;;
35969;SDS011;22448;51.298;6.430;2022-09-09T14:36:19;8.95;;;1.52;;
35969;SDS011;22448;51.298;6.430;2022-09-09T14:38:46;6.75;;;0.90;;
35969;SDS011;22448;51.298;6.430;2022-09-09T14:41:14;4.15;;;1.20;;
35969;SDS011;22448;51.298;6.430;2022-09-09T14:43:46;2.15;;;1.02;;
35969;SDS011;22448;51.298;6.430;2022-09-09T14:46:16;4.97;;;1.13;;
35969;SDS011;22448;51.298;6.430;2022-09-09T14:48:44;7.03;;;1.30;;
35969;SDS011;22448;51.298;6.430;2022-09-09T14:51:15;5.35;;;1.00;;
35969;SDS011;22448;51.298;6.430;2022-09-09T14:53:50;5.25;;;1.27;;
35969;SDS011;22448;51.298;6.430;2022-09-09T14:56:20;6.45;;;1.13;;
35969;SDS011;22448;51.298;6.430;2022-09-09T14:58:50;2.13;;;0.90;;
35969;SDS011;22448;51.298;6.430;2022-09-09T15:01:19;3.60;;;1.40;;
35969;SDS011;22448;51.298;6.430;2022-09-09T15:03:50;3.53;;;0.98;;
35969;SDS011;22448;51.298;6.430;2022-09-09T15:06:18;7.15;;;1.00;;
35969;SDS011;22448;51.298;6.430;2022-09-09T15:08:46;4.22;;;0.75;;
35969;SDS011;22448;51.298;6.430;2022-09-09T15:11:14;2.38;;;0.88;;
35969;SDS011;22448;51.298;6.430;2022-09-09T15:13:41;1.20;;;0.68;;
35969;SDS011;22448;51.298;6.430;2022-09-09T15:18:38;4.38;;;0.70;;
35969;SDS011;22448;51.298;6.430;2022-09-09T15:21:13;2.97;;;0.90;;
35969;SDS011;22448;51.298;6.430;2022-09-09T15:23:45;7.65;;;1.00;;
35969;SDS011;22448;51.298;6.430;2022-09-09T15:26:14;5.70;;;1.10;;
35969;SDS011;22448;51.298;6.430;2022-09-09T15:28:42;5.43;;;1.20;;
35969;SDS011;22448;51.298;6.430;2022-09-09T15:31:11;3.03;;;1.30;;
35969;SDS011;22448;51.298;6.430;2022-09-09T15:33:40;7.68;;;0.93;;
35969;SDS011;22448;51.298;6.430;2022-09-09T15:36:14;7.47;;;1.30;;
35969;SDS011;22448;51.298;6.430;2022-09-09T15:38:44;5.40;;;0.90;;
35969;SDS011;22448;51.298;6.430;2022-09-09T15:41:12;2.88;;;1.08;;
35969;SDS011;22448;51.298;6.430;2022-09-09T15:43:46;3.92;;;1.30;;
35969;SDS011;22448;51.298;6.430;2022-09-09T15:48:43;4.47;;;1.50;;
35969;SDS011;22448;51.298;6.430;2022-09-09T15:51:14;3.67;;;1.30;;
35969;SDS011;22448;51.298;6.430;2022-09-09T15:54:00;5.75;;;1.50;;
35969;SDS011;22448;51.298;6.430;2022-09-09T15:56:28;4.80;;;1.25;;
35969;SDS011;22448;51.298;6.430;2022-09-09T15:58:59;9.98;;;1.75;;
35969;SDS011;22448;51.298;6.430;2022-09-09T16:01:27;6.30;;;1.55;;
35969;SDS011;22448;51.298;6.430;2022-09-09T16:03:54;6.28;;;1.75;;
35969;SDS011;22448;51.298;6.430;2022-09-09T16:06:23;3.55;;;1.55;;
35969;SDS011;22448;51.298;6.430;2022-09-09T16:08:51;4.57;;;1.48;;
35969;SDS011;22448;51.298;6.430;2022-09-09T16:11:20;5.80;;;1.50;;
35969;SDS011;22448;51.298;6.430;2022-09-09T16:13:49;7.50;;;1.90;;
35969;SDS011;22448;51.298;6.430;2022-09-09T16:16:18;7.75;;;1.75;;
35969;SDS011;22448;51.298;6.430;2022-09-09T16:18:49;4.60;;;1.98;;
35969;SDS011;22448;51.298;6.430;2022-09-09T16:21:19;8.48;;;1.60;;
35969;SDS011;22448;51.298;6.430;2022-09-09T16:23:57;8.55;;;1.80;;
35969;SDS011;22448;51.298;6.430;2022-09-09T16:26:26;7.72;;;2.15;;
35969;SDS011;22448;51.298;6.430;2022-09-09T16:28:54;10.85;;;1.95;;
35969;SDS011;22448;51.298;6.430;2022-09-09T16:31:22;7.30;;;2.17;;
35969;SDS011;22448;51.298;6.430;2022-09-09T16:33:50;7.07;;;1.75;;
35969;SDS011;22448;51.298;6.430;2022-09-09T16:36:21;8.15;;;2.50;;
35969;SDS011;22448;51.298;6.430;2022-09-09T16:38:56;8.82;;;2.22;;
35969;SDS011;22448;51.298;6.430;2022-09-09T16:41:25;11.27;;;1.58;;
35969;SDS011;22448;51.298;6.430;2022-09-09T16:43:54;7.32;;;1.40;;
35969;SDS011;22448;51.298;6.430;2022-09-09T16:46:26;4.40;;;1.38;;
35969;SDS011;22448;51.298;6.430;2022-09-09T16:48:58;6.13;;;1.60;;
35969;SDS011;22448;51.298;6.430;2022-09-09T16:51:36;5.32;;;1.30;;
35969;SDS011;22448;51.298;6.430;2022-09-09T16:54:11;8.90;;;2.05;;
35969;SDS011;22448;51.298;6.430;2022-09-09T16:56:40;11.60;;;1.50;;
35969;SDS011;22448;51.298;6.430;2022-09-09T16:59:18;5.63;;;1.75;;
35969;SDS011;22448;51.298;6.430;2022-09-09T17:01:47;6.97;;;1.63;;
35969;SDS011;22448;51.298;6.430;2022-09-09T17:04:17;7.28;;;1.95;;
35969;SDS011;22448;51.298;6.430;2022-09-09T17:06:50;4.70;;;1.63;;
35969;SDS011;22448;51.298;6.430;2022-09-09T17:09:18;9.70;;;2.08;;
35969;SDS011;22448;51.298;6.430;2022-09-09T17:11:46;9.57;;;1.65;;
35969;SDS011;22448;51.298;6.430;2022-09-09T17:14:17;11.05;;;2.13;;
35969;SDS011;22448;51.298;6.430;2022-09-09T17:16:45;8.68;;;1.80;;